createdAt,value
2018-02-09T00:01:21.372Z,12.43
2018-02-09T00:03:49.954Z,11.67
2018-02-09T00:06:17.556Z,11.83
2018-02-09T00:08:45.130Z,11.27
2018-02-09T00:11:12.763Z,11.27
2018-02-09T00:13:40.376Z,11.50
2018-02-09T00:16:07.955Z,9.87
2018-02-09T00:18:35.836Z,10.03
2018-02-09T00:21:03.426Z,10.00
2018-02-09T00:23:31.040Z,10.33
2018-02-09T00:25:58.681Z,9.73
2018-02-09T00:28:26.248Z,9.57
2018-02-09T00:30:53.824Z,10.00
2018-02-09T00:33:21.476Z,9.67
2018-02-09T00:35:49.118Z,10.20
2018-02-09T00:38:16.720Z,9.17
2018-02-09T00:40:44.320Z,10.40
2018-02-09T00:43:12.402Z,9.73
2018-02-09T00:45:39.986Z,9.37
2018-02-09T00:48:07.697Z,9.80
2018-02-09T00:50:38.867Z,8.83
2018-02-09T00:53:06.424Z,9.80
2018-02-09T00:55:34.240Z,9.13
2018-02-09T00:58:01.797Z,9.37
2018-02-09T01:00:29.398Z,10.57
2018-02-09T01:02:59.783Z,10.53
2018-02-09T01:05:27.449Z,10.40
2018-02-09T01:07:55.058Z,11.17
2018-02-09T01:10:22.747Z,10.47
2018-02-09T01:12:50.398Z,10.90
2018-02-09T01:15:17.965Z,11.83
2018-02-09T01:17:45.589Z,11.07
2018-02-09T01:20:13.157Z,11.50
2018-02-09T01:22:40.795Z,11.77
2018-02-09T01:25:08.428Z,12.10
2018-02-09T01:27:36.065Z,12.53
2018-02-09T01:30:03.694Z,11.47
2018-02-09T01:32:31.344Z,10.03
2018-02-09T01:34:58.917Z,10.60
2018-02-09T01:37:26.505Z,10.70
2018-02-09T01:39:54.126Z,7.57
2018-02-09T01:42:22.595Z,7.47
2018-02-09T01:44:49.636Z,8.20
2018-02-09T01:47:17.271Z,7.47
2018-02-09T01:49:44.895Z,7.30
2018-02-09T01:52:12.451Z,6.40
2018-02-09T01:54:40.060Z,5.67
2018-02-09T01:57:07.657Z,4.73
2018-02-09T01:59:35.222Z,3.90
2018-02-09T02:02:02.837Z,3.80
2018-02-09T02:04:30.428Z,3.63
2018-02-09T02:06:58.013Z,4.40
2018-02-09T02:09:25.901Z,4.00
2018-02-09T02:11:53.477Z,5.10
2018-02-09T02:14:21.053Z,4.80
2018-02-09T02:16:48.697Z,5.37
2018-02-09T02:19:16.295Z,5.77
2018-02-09T02:21:43.906Z,6.80
2018-02-09T02:24:12.080Z,7.73
2018-02-09T02:26:39.644Z,8.00
2018-02-09T02:29:07.248Z,8.77
2018-02-09T02:31:34.857Z,8.60
2018-02-09T02:34:02.445Z,8.33
2018-02-09T02:36:30.026Z,8.90
2018-02-09T02:38:57.706Z,8.60
2018-02-09T02:41:25.259Z,7.27
2018-02-09T02:43:52.849Z,7.40
2018-02-09T02:46:21.160Z,4.10
2018-02-09T02:48:48.719Z,4.20
2018-02-09T02:51:16.276Z,4.17
2018-02-09T02:53:43.920Z,3.10
2018-02-09T02:56:11.489Z,2.70
2018-02-09T02:58:39.087Z,2.43
2018-02-09T03:01:06.711Z,2.77
2018-02-09T03:03:34.301Z,2.60
2018-02-09T03:06:01.938Z,2.30
2018-02-09T03:08:29.550Z,2.37
2018-02-09T03:10:57.112Z,2.70
2018-02-09T03:13:24.666Z,2.73
2018-02-09T03:15:52.305Z,2.40
2018-02-09T03:18:19.864Z,2.10
2018-02-09T03:20:47.437Z,2.37
2018-02-09T03:23:15.268Z,2.20
2018-02-09T03:25:42.899Z,2.70
2018-02-09T03:28:10.496Z,2.30
2018-02-09T03:30:38.112Z,2.43
2018-02-09T03:33:05.691Z,2.23
2018-02-09T03:35:33.324Z,2.47
2018-02-09T03:38:00.931Z,2.40
2018-02-09T03:40:28.506Z,2.93
2018-02-09T03:42:56.084Z,3.90
2018-02-09T03:45:23.698Z,4.00
2018-02-09T03:47:51.605Z,4.30
2018-02-09T03:50:19.204Z,3.73
2018-02-09T03:52:46.807Z,4.00
2018-02-09T03:55:14.429Z,4.33
2018-02-09T03:57:41.975Z,5.23
2018-02-09T04:00:09.827Z,4.20
2018-02-09T04:02:37.468Z,3.97
2018-02-09T04:05:05.054Z,4.10
2018-02-09T04:07:32.687Z,4.20
2018-02-09T04:10:00.250Z,4.70
2018-02-09T04:12:28.314Z,5.00
2018-02-09T04:14:55.944Z,4.77
2018-02-09T04:17:23.502Z,4.53
2018-02-09T04:19:51.060Z,4.53
2018-02-09T04:22:18.741Z,3.90
2018-02-09T04:24:46.306Z,4.43
2018-02-09T04:27:13.968Z,4.30
2018-02-09T04:29:41.645Z,4.20
2018-02-09T04:32:09.199Z,4.40
2018-02-09T04:34:36.773Z,4.93
2018-02-09T04:37:05.173Z,6.43
2018-02-09T04:39:32.757Z,5.63
2018-02-09T04:42:00.437Z,5.30
2018-02-09T04:44:28.339Z,5.20
2018-02-09T04:46:55.903Z,4.60
2018-02-09T04:49:23.511Z,5.10
2018-02-09T04:51:51.165Z,5.03
2018-02-09T04:54:18.720Z,7.37
2018-02-09T04:56:46.300Z,6.57
2018-02-09T04:59:13.925Z,6.30
2018-02-09T05:01:41.530Z,6.93
2018-02-09T05:04:09.110Z,6.27
2018-02-09T05:06:37.392Z,6.10
2018-02-09T05:09:05.099Z,6.33
2018-02-09T05:11:32.677Z,6.93
2018-02-09T05:14:00.299Z,6.90
2018-02-09T05:16:27.852Z,5.67
2018-02-09T05:18:55.431Z,4.77
2018-02-09T05:21:23.134Z,5.03
2018-02-09T05:23:50.700Z,6.57
2018-02-09T05:26:18.267Z,9.20
2018-02-09T05:28:45.884Z,6.27
2018-02-09T05:31:13.682Z,5.50
2018-02-09T05:33:41.260Z,10.63
2018-02-09T05:36:08.898Z,13.23
2018-02-09T05:38:36.464Z,18.53
2018-02-09T05:41:04.040Z,16.70
2018-02-09T05:43:31.686Z,17.43
2018-02-09T05:46:00.340Z,17.30
2018-02-09T05:48:27.942Z,20.60
2018-02-09T05:50:56.021Z,22.47
2018-02-09T05:53:23.730Z,18.43
2018-02-09T05:55:51.324Z,20.37
2018-02-09T05:58:19.008Z,20.07
2018-02-09T06:00:46.584Z,19.97
2018-02-09T06:03:14.149Z,19.93
2018-02-09T06:05:41.786Z,19.03
2018-02-09T06:08:09.435Z,20.93
2018-02-09T06:10:37.027Z,25.07
2018-02-09T06:13:04.818Z,28.33
2018-02-09T06:15:32.765Z,23.73
2018-02-09T06:18:00.423Z,25.47
2018-02-09T06:20:28.126Z,24.97
2018-02-09T06:22:55.712Z,27.20
2018-02-09T06:25:24.810Z,28.43
2018-02-09T06:27:52.502Z,29.33
2018-02-09T06:30:20.313Z,28.13
2018-02-09T06:32:48.114Z,26.60
2018-02-09T06:35:17.758Z,22.87
2018-02-09T06:37:45.431Z,22.93
2018-02-09T06:40:13.198Z,20.63
2018-02-09T06:42:40.971Z,20.63
2018-02-09T06:45:09.483Z,23.83
2018-02-09T06:47:37.129Z,21.70
2018-02-09T06:50:04.761Z,20.93
2018-02-09T06:52:32.459Z,22.43
2018-02-09T06:55:00.035Z,20.60
2018-02-09T06:57:27.907Z,20.17
2018-02-09T06:59:57.765Z,20.10
2018-02-09T07:02:25.332Z,20.77
2018-02-09T07:04:52.964Z,22.00
2018-02-09T07:07:20.531Z,20.80
2018-02-09T07:09:48.120Z,22.00
2018-02-09T07:12:15.788Z,22.37
2018-02-09T07:14:43.429Z,23.53
2018-02-09T07:17:11.077Z,22.37
2018-02-09T07:19:38.806Z,22.40
2018-02-09T07:22:06.627Z,23.23
2018-02-09T07:24:34.294Z,23.07
2018-02-09T07:27:02.429Z,20.40
2018-02-09T07:29:30.013Z,22.03
2018-02-09T07:31:57.601Z,18.37
2018-02-09T07:34:25.365Z,17.57
2018-02-09T07:36:52.941Z,17.17
2018-02-09T07:39:20.532Z,15.60
2018-02-09T07:41:48.222Z,19.27
2018-02-09T07:44:15.846Z,9.50
2018-02-09T07:46:44.180Z,10.20
2018-02-09T07:49:11.816Z,6.20
2018-02-09T07:51:39.497Z,6.03
2018-02-09T07:54:07.260Z,4.03
2018-02-09T07:56:34.887Z,4.10
2018-02-09T07:59:02.451Z,3.97
2018-02-09T08:01:30.018Z,5.13
2018-02-09T08:03:57.663Z,4.93
2018-02-09T08:06:25.336Z,4.10
2018-02-09T08:08:52.917Z,4.47
2018-02-09T08:11:20.534Z,4.73
2018-02-09T08:13:48.157Z,4.53
2018-02-09T08:16:15.721Z,4.50
2018-02-09T08:18:43.377Z,4.93
2018-02-09T08:21:11.380Z,4.67
2018-02-09T08:23:39.022Z,5.27
2018-02-09T08:26:06.680Z,4.43
2018-02-09T08:28:34.248Z,3.70
2018-02-09T08:31:01.896Z,4.97
2018-02-09T08:33:29.657Z,4.80
2018-02-09T08:35:57.233Z,5.67
2018-02-09T08:38:24.874Z,4.50
2018-02-09T08:40:52.490Z,3.90
2018-02-09T08:43:20.057Z,3.73
2018-02-09T08:45:47.993Z,4.77
2018-02-09T08:48:15.888Z,6.40
2018-02-09T08:50:43.464Z,5.37
2018-02-09T08:53:11.038Z,4.57
2018-02-09T08:55:38.841Z,4.10
2018-02-09T08:58:06.442Z,3.77
2018-02-09T09:00:34.008Z,3.80
2018-02-09T09:03:01.658Z,4.00
2018-02-09T09:05:29.294Z,4.40
2018-02-09T09:07:56.880Z,3.23
2018-02-09T09:10:24.512Z,4.20
2018-02-09T09:12:52.108Z,3.40
2018-02-09T09:15:19.674Z,3.77
2018-02-09T09:17:47.289Z,3.60
2018-02-09T09:20:14.868Z,3.40
2018-02-09T09:22:42.431Z,2.90
2018-02-09T09:25:10.065Z,3.43
2018-02-09T09:27:37.637Z,3.30
2018-02-09T09:30:05.256Z,3.87
2018-02-09T09:32:32.883Z,3.00
2018-02-09T09:35:00.486Z,3.57
2018-02-09T09:37:28.901Z,2.67
2018-02-09T09:39:56.532Z,2.27
2018-02-09T09:42:24.125Z,2.40
2018-02-09T09:44:51.738Z,2.13
2018-02-09T09:47:19.676Z,2.13
2018-02-09T09:49:47.265Z,2.27
2018-02-09T09:52:14.909Z,2.30
2018-02-09T09:54:42.552Z,2.70
2018-02-09T09:57:10.207Z,2.67
2018-02-09T09:59:37.806Z,4.53
2018-02-09T10:02:05.487Z,4.43
2018-02-09T10:04:33.078Z,4.07
2018-02-09T10:07:00.714Z,3.10
2018-02-09T10:09:28.353Z,2.17
2018-02-09T10:11:55.942Z,2.60
2018-02-09T10:14:24.060Z,2.50
2018-02-09T10:16:51.750Z,2.30
2018-02-09T10:19:19.321Z,2.27
2018-02-09T10:21:46.899Z,2.40
2018-02-09T10:24:14.591Z,2.40
2018-02-09T10:26:42.229Z,2.80
2018-02-09T10:29:09.813Z,3.90
2018-02-09T10:31:37.437Z,2.87
2018-02-09T10:34:05.011Z,2.97
2018-02-09T10:36:32.615Z,3.00
2018-02-09T10:39:00.281Z,2.70
2018-02-09T10:41:27.927Z,2.37
2018-02-09T10:43:55.531Z,2.70
2018-02-09T10:46:23.161Z,2.90
2018-02-09T10:48:50.802Z,4.30
2018-02-09T10:51:18.369Z,6.07
2018-02-09T10:53:46.219Z,3.53
2018-02-09T10:56:13.859Z,3.30
2018-02-09T10:58:41.566Z,3.53
2018-02-09T11:01:09.240Z,3.57
2018-02-09T11:03:36.804Z,3.47
2018-02-09T11:06:04.403Z,4.03
2018-02-09T11:08:32.069Z,3.70
2018-02-09T11:10:59.729Z,3.70
2018-02-09T11:13:32.951Z,3.50
2018-02-09T11:16:00.527Z,3.73
2018-02-09T11:18:28.107Z,3.60
2018-02-09T11:20:55.790Z,2.83
2018-02-09T11:23:23.375Z,4.67
2018-02-09T11:25:50.936Z,4.13
2018-02-09T11:28:18.557Z,3.03
2018-02-09T11:30:46.209Z,3.23
2018-02-09T11:33:13.813Z,3.80
2018-02-09T11:35:41.442Z,2.40
2018-02-09T11:38:09.091Z,2.20
2018-02-09T11:40:36.650Z,2.80
2018-02-09T11:43:04.293Z,3.50
2018-02-09T11:45:31.878Z,2.47
2018-02-09T11:47:59.476Z,3.33
2018-02-09T11:50:27.126Z,2.33
2018-02-09T11:52:55.447Z,2.20
2018-02-09T11:55:23.086Z,2.50
2018-02-09T11:57:50.917Z,2.53
2018-02-09T12:00:18.577Z,2.03
2018-02-09T12:02:46.153Z,2.10
2018-02-09T12:05:13.779Z,2.07
2018-02-09T12:07:41.414Z,1.87
2018-02-09T12:10:08.990Z,2.20
2018-02-09T12:12:36.601Z,3.23
2018-02-09T12:15:04.229Z,3.13
2018-02-09T12:17:31.798Z,2.70
2018-02-09T12:19:59.527Z,2.47
2018-02-09T12:22:27.951Z,2.50
2018-02-09T12:24:55.600Z,2.80
2018-02-09T12:27:25.957Z,2.40
2018-02-09T12:29:53.518Z,2.27
2018-02-09T12:32:21.108Z,2.17
2018-02-09T12:34:48.754Z,2.37
2018-02-09T12:37:16.394Z,1.80
2018-02-09T12:39:43.966Z,1.40
2018-02-09T12:42:11.659Z,1.70
2018-02-09T12:44:39.231Z,1.70
2018-02-09T12:47:06.812Z,2.10
2018-02-09T12:49:34.430Z,3.37
2018-02-09T12:52:02.016Z,1.77
2018-02-09T12:54:29.588Z,2.20
2018-02-09T12:56:57.266Z,2.30
2018-02-09T12:59:24.841Z,2.30
2018-02-09T13:01:52.494Z,2.47
2018-02-09T13:04:20.434Z,2.10
2018-02-09T13:06:48.002Z,1.87
2018-02-09T13:09:15.651Z,2.20
2018-02-09T13:11:43.256Z,1.97
2018-02-09T13:14:10.894Z,2.40
2018-02-09T13:16:38.472Z,2.30
2018-02-09T13:19:06.117Z,6.27
2018-02-09T13:21:33.749Z,3.63
2018-02-09T13:24:13.210Z,2.77
2018-02-09T13:26:40.793Z,3.77
2018-02-09T13:29:08.387Z,3.13
2018-02-09T13:31:36.013Z,2.47
2018-02-09T13:34:03.607Z,2.40
2018-02-09T13:36:42.947Z,2.40
2018-02-09T13:39:10.553Z,2.63
2018-02-09T13:41:38.267Z,2.20
2018-02-09T13:44:05.874Z,2.40
2018-02-09T13:46:33.483Z,2.30
2018-02-09T13:49:01.049Z,2.50
2018-02-09T13:51:28.881Z,2.30
2018-02-09T13:53:56.502Z,2.60
2018-02-09T13:56:24.097Z,2.60
2018-02-09T13:58:52.623Z,2.63
2018-02-09T14:01:20.201Z,2.70
2018-02-09T14:03:47.885Z,2.37
2018-02-09T14:06:15.650Z,2.40
2018-02-09T14:08:43.239Z,2.50
2018-02-09T14:11:10.805Z,2.30
2018-02-09T14:13:38.432Z,2.53
2018-02-09T14:16:06.018Z,2.33
2018-02-09T14:18:33.711Z,2.70
2018-02-09T14:21:01.475Z,2.93
2018-02-09T14:23:29.042Z,2.47
2018-02-09T14:25:58.957Z,3.93
2018-02-09T14:28:26.619Z,4.07
2018-02-09T14:30:54.216Z,2.97
2018-02-09T14:33:21.773Z,3.60
2018-02-09T14:35:49.450Z,2.67
2018-02-09T14:38:17.029Z,4.63
2018-02-09T14:40:44.829Z,3.40
2018-02-09T14:43:12.504Z,3.97
2018-02-09T14:45:40.672Z,4.83
2018-02-09T14:48:08.248Z,4.00
2018-02-09T14:50:35.951Z,3.93
2018-02-09T14:53:03.613Z,3.90
2018-02-09T14:55:31.185Z,4.17
2018-02-09T14:57:59.058Z,3.97
2018-02-09T15:00:27.551Z,4.10
2018-02-09T15:02:55.135Z,3.53
2018-02-09T15:05:23.226Z,4.27
2018-02-09T15:07:50.860Z,4.03
2018-02-09T15:10:18.437Z,3.70
2018-02-09T15:12:46.122Z,4.33
2018-02-09T15:15:13.698Z,3.80
2018-02-09T15:17:41.281Z,4.27
2018-02-09T15:20:08.916Z,4.40
2018-02-09T15:22:36.497Z,4.30
2018-02-09T15:25:04.059Z,4.10
2018-02-09T15:27:31.707Z,4.53
2018-02-09T15:29:59.282Z,4.70
2018-02-09T15:32:26.920Z,4.10
2018-02-09T15:34:55.300Z,4.40
2018-02-09T15:37:22.864Z,4.00
2018-02-09T15:39:50.440Z,4.23
2018-02-09T15:42:18.081Z,3.97
2018-02-09T15:44:45.657Z,4.47
2018-02-09T15:47:13.313Z,4.20
2018-02-09T15:49:40.965Z,4.40
2018-02-09T15:52:08.603Z,4.60
2018-02-09T15:54:36.185Z,4.33
2018-02-09T15:57:03.838Z,4.53
2018-02-09T15:59:31.416Z,4.43
2018-02-09T16:01:59.009Z,4.13
2018-02-09T16:04:26.815Z,4.43
2018-02-09T16:06:54.473Z,4.40
2018-02-09T16:09:22.055Z,4.60
2018-02-09T16:11:49.985Z,5.03
2018-02-09T16:14:17.889Z,5.43
2018-02-09T16:16:45.451Z,11.80
2018-02-09T16:19:13.092Z,10.17
2018-02-09T16:21:40.669Z,13.43
2018-02-09T16:24:08.311Z,16.43
2018-02-09T16:26:35.934Z,13.40
2018-02-09T16:29:03.526Z,15.83
2018-02-09T16:31:31.123Z,28.90
2018-02-09T16:33:58.745Z,12.73
2018-02-09T16:36:26.547Z,9.87
2018-02-09T16:38:54.125Z,13.13
2018-02-09T16:41:21.785Z,13.83
2018-02-09T16:43:49.506Z,11.53
2018-02-09T16:46:17.104Z,10.53
2018-02-09T16:48:44.818Z,10.50
2018-02-09T16:51:12.413Z,9.00
2018-02-09T16:53:39.990Z,9.27
2018-02-09T16:56:07.627Z,13.93
2018-02-09T16:58:35.221Z,10.10
2018-02-09T17:01:02.850Z,7.30
2018-02-09T17:03:30.485Z,7.50
2018-02-09T17:05:58.063Z,7.90
2018-02-09T17:08:25.764Z,11.53
2018-02-09T17:10:53.389Z,24.90
2018-02-09T17:13:20.974Z,28.27
2018-02-09T17:15:48.569Z,21.63
2018-02-09T17:18:16.238Z,21.50
2018-02-09T17:20:43.833Z,26.20
2018-02-09T17:23:11.412Z,11.37
2018-02-09T17:25:39.046Z,13.57
2018-02-09T17:28:06.766Z,7.10
2018-02-09T17:30:34.353Z,6.03
2018-02-09T17:33:02.584Z,6.03
2018-02-09T17:35:30.147Z,6.43
2018-02-09T17:37:57.788Z,6.13
2018-02-09T17:40:25.477Z,8.03
2018-02-09T17:42:53.089Z,7.00
2018-02-09T17:45:20.675Z,7.07
2018-02-09T17:47:48.373Z,8.73
2018-02-09T17:50:16.491Z,7.20
2018-02-09T17:52:44.175Z,6.43
2018-02-09T17:55:11.787Z,5.80
2018-02-09T17:57:39.421Z,7.50
2018-02-09T18:00:07.009Z,6.93
2018-02-09T18:02:34.840Z,6.63
2018-02-09T18:05:02.432Z,6.67
2018-02-09T18:07:30.065Z,8.20
2018-02-09T18:09:57.827Z,8.57
2018-02-09T18:12:25.412Z,9.27
2018-02-09T18:14:52.985Z,13.10
2018-02-09T18:17:20.689Z,12.70
2018-02-09T18:19:48.280Z,12.30
2018-02-09T18:22:15.856Z,16.93
2018-02-09T18:24:43.497Z,14.90
2018-02-09T18:27:11.071Z,14.93
2018-02-09T18:29:38.702Z,13.30
2018-02-09T18:32:06.361Z,12.50
2018-02-09T18:34:35.206Z,12.40
2018-02-09T18:37:02.796Z,10.77
2018-02-09T18:39:30.448Z,9.57
2018-02-09T18:41:58.660Z,9.53
2018-02-09T18:44:26.254Z,11.27
2018-02-09T18:46:53.936Z,9.70
2018-02-09T18:49:21.505Z,9.23
2018-02-09T18:51:49.080Z,10.53
2018-02-09T18:54:16.778Z,8.37
2018-02-09T18:56:44.360Z,9.67
2018-02-09T18:59:11.938Z,8.47
2018-02-09T19:01:39.601Z,8.50
2018-02-09T19:04:07.174Z,7.43
2018-02-09T19:06:34.835Z,8.30
2018-02-09T19:09:02.699Z,7.87
2018-02-09T19:11:30.335Z,8.00
2018-02-09T19:13:57.933Z,12.33
2018-02-09T19:16:25.573Z,10.17
2018-02-09T19:18:53.144Z,9.87
2018-02-09T19:21:20.725Z,10.30
2018-02-09T19:23:48.355Z,11.13
2018-02-09T19:26:16.545Z,10.13
2018-02-09T19:28:44.120Z,10.80
2018-02-09T19:31:11.831Z,10.37
2018-02-09T19:33:39.473Z,11.90
2018-02-09T19:36:07.040Z,11.43
2018-02-09T19:38:34.676Z,12.10
2018-02-09T19:41:02.257Z,13.53
2018-02-09T19:43:29.850Z,13.13
2018-02-09T19:45:57.471Z,10.97
2018-02-09T19:48:25.129Z,10.83
2018-02-09T19:50:52.712Z,10.30
2018-02-09T19:53:21.285Z,9.77
2018-02-09T19:55:48.861Z,9.57
2018-02-09T19:58:16.433Z,8.83
2018-02-09T20:00:44.027Z,8.47
2018-02-09T20:03:11.603Z,8.60
2018-02-09T20:05:39.178Z,8.73
2018-02-09T20:08:06.804Z,9.43
2018-02-09T20:10:34.370Z,9.67
2018-02-09T20:13:02.077Z,8.80
2018-02-09T20:15:29.723Z,8.20
2018-02-09T20:17:57.321Z,8.80
2018-02-09T20:20:24.890Z,8.43
2018-02-09T20:22:52.581Z,8.80
2018-02-09T20:25:20.184Z,8.50
2018-02-09T20:27:47.751Z,9.93
2018-02-09T20:30:15.759Z,11.83
2018-02-09T20:32:43.340Z,10.80
2018-02-09T20:35:10.897Z,9.63
2018-02-09T20:37:38.531Z,9.17
2018-02-09T20:40:06.101Z,8.63
2018-02-09T20:42:33.804Z,8.93
2018-02-09T20:45:01.391Z,9.17
2018-02-09T20:47:29.033Z,8.23
2018-02-09T20:49:56.665Z,8.80
2018-02-09T20:52:24.324Z,8.50
2018-02-09T20:54:51.913Z,8.53
2018-02-09T20:57:19.491Z,8.90
2018-02-09T20:59:49.155Z,8.90
2018-02-09T21:02:16.735Z,8.73
2018-02-09T21:04:44.323Z,10.23
2018-02-09T21:07:12.245Z,13.73
2018-02-09T21:09:39.833Z,15.57
2018-02-09T21:12:07.396Z,15.60
2018-02-09T21:14:35.193Z,16.27
2018-02-09T21:17:02.861Z,15.90
2018-02-09T21:19:30.437Z,14.53
2018-02-09T21:21:58.101Z,14.60
2018-02-09T21:24:25.731Z,12.50
2018-02-09T21:26:53.300Z,12.90
2018-02-09T21:29:21.282Z,12.73
2018-02-09T21:31:48.879Z,12.80
2018-02-09T21:34:16.453Z,12.37
2018-02-09T21:36:44.199Z,13.93
2018-02-09T21:39:11.768Z,14.07
2018-02-09T21:41:39.356Z,15.07
2018-02-09T21:44:07.191Z,15.80
2018-02-09T21:46:34.842Z,17.17
2018-02-09T21:49:02.481Z,16.20
2018-02-09T21:51:30.105Z,15.87
2018-02-09T21:53:57.820Z,15.90
2018-02-09T21:56:25.395Z,16.10
2018-02-09T21:58:53.051Z,15.33
2018-02-09T22:01:21.261Z,14.97
2018-02-09T22:03:48.830Z,14.90
2018-02-09T22:06:16.451Z,14.80
2018-02-09T22:08:44.054Z,14.23
2018-02-09T22:11:11.621Z,13.57
2018-02-09T22:13:39.260Z,13.37
2018-02-09T22:16:07.252Z,13.83
2018-02-09T22:18:34.840Z,14.23
2018-02-09T22:21:02.521Z,16.47
2018-02-09T22:23:30.118Z,18.17
2018-02-09T22:25:58.106Z,16.70
2018-02-09T22:28:26.604Z,17.13
2018-02-09T22:30:54.205Z,17.27
2018-02-09T22:33:21.781Z,17.53
2018-02-09T22:35:49.416Z,17.70
2018-02-09T22:38:17.066Z,18.80
2018-02-09T22:40:44.638Z,17.80
2018-02-09T22:43:13.002Z,18.50
2018-02-09T22:45:40.582Z,19.27
2018-02-09T22:48:08.682Z,19.10
2018-02-09T22:50:36.397Z,18.67
2018-02-09T22:53:03.983Z,17.93
2018-02-09T22:55:31.796Z,18.90
2018-02-09T22:57:59.467Z,18.87
2018-02-09T23:00:27.060Z,17.77
2018-02-09T23:02:54.666Z,17.43
2018-02-09T23:05:22.364Z,16.30
2018-02-09T23:07:49.945Z,15.50
2018-02-09T23:10:17.543Z,15.40
2018-02-09T23:12:45.182Z,14.47
2018-02-09T23:15:13.148Z,14.23
2018-02-09T23:17:40.840Z,12.83
2018-02-09T23:20:08.489Z,12.90
2018-02-09T23:22:36.137Z,13.00
2018-02-09T23:25:03.739Z,11.97
2018-02-09T23:27:31.673Z,11.23
2018-02-09T23:29:59.261Z,11.00
2018-02-09T23:32:26.885Z,10.27
2018-02-09T23:34:54.529Z,10.23
2018-02-09T23:37:22.109Z,10.67
2018-02-09T23:39:49.689Z,9.67
2018-02-09T23:42:17.373Z,9.07
2018-02-09T23:44:44.941Z,9.07
2018-02-09T23:47:12.494Z,9.37
2018-02-09T23:49:40.189Z,9.00
2018-02-09T23:52:07.829Z,9.20
2018-02-09T23:54:35.399Z,8.83
2018-02-09T23:57:03.102Z,8.93
2018-02-09T23:59:30.681Z,8.33
